sensor_id;sensor_type;location;lat;lon;timestamp;P1;durP1;ratioP1;P2;durP2;ratioP2
44862;SDS011;30597;49.628;10.850;2023-05-21T00:02:07;4.30;;;2.80;;
44862;SDS011;30597;49.628;10.850;2023-05-21T00:04:36;2.70;;;2.50;;
44862;SDS011;30597;49.628;10.850;2023-05-21T00:07:04;2.80;;;2.37;;
44862;SDS011;30597;49.628;10.850;2023-05-21T00:09:30;2.77;;;2.53;;
44862;SDS011;30597;49.628;10.850;2023-05-21T00:11:56;3.00;;;2.80;;
44862;SDS011;30597;49.628;10.850;2023-05-21T00:14:21;3.80;;;2.33;;
44862;SDS011;30597;49.628;10.850;2023-05-21T00:16:47;2.70;;;2.47;;
44862;SDS011;30597;49.628;10.850;2023-05-21T00:19:12;5.03;;;2.80;;
44862;SDS011;30597;49.628;10.850;2023-05-21T00:21:38;6.13;;;3.00;;
44862;SDS011;30597;49.628;10.850;2023-05-21T00:24:04;3.93;;;2.90;;
44862;SDS011;30597;49.628;10.850;2023-05-21T00:26:30;3.23;;;3.03;;
44862;SDS011;30597;49.628;10.850;2023-05-21T00:28:55;2.80;;;2.40;;
44862;SDS011;30597;49.628;10.850;2023-05-21T00:31:21;3.20;;;2.90;;
44862;SDS011;30597;49.628;10.850;2023-05-21T00:33:47;2.80;;;2.60;;
44862;SDS011;30597;49.628;10.850;2023-05-21T00:36:12;3.27;;;2.90;;
44862;SDS011;30597;49.628;10.850;2023-05-21T00:38:41;4.30;;;2.70;;
44862;SDS011;30597;49.628;10.850;2023-05-21T00:41:10;3.50;;;2.70;;
44862;SDS011;30597;49.628;10.850;2023-05-21T00:43:37;4.00;;;2.73;;
44862;SDS011;30597;49.628;10.850;2023-05-21T00:46:06;2.33;;;2.13;;
44862;SDS011;30597;49.628;10.850;2023-05-21T00:48:35;4.33;;;2.50;;
44862;SDS011;30597;49.628;10.850;2023-05-21T00:51:02;2.70;;;2.50;;
44862;SDS011;30597;49.628;10.850;2023-05-21T00:53:28;3.13;;;2.83;;
44862;SDS011;30597;49.628;10.850;2023-05-21T00:55:54;3.07;;;2.77;;
44862;SDS011;30597;49.628;10.850;2023-05-21T00:58:20;3.03;;;2.53;;
44862;SDS011;30597;49.628;10.850;2023-05-21T01:00:45;3.10;;;2.80;;
44862;SDS011;30597;49.628;10.850;2023-05-21T01:03:11;3.60;;;2.60;;
44862;SDS011;30597;49.628;10.850;2023-05-21T01:05:38;2.60;;;2.30;;
44862;SDS011;30597;49.628;10.850;2023-05-21T01:08:04;3.87;;;2.90;;
44862;SDS011;30597;49.628;10.850;2023-05-21T01:10:31;2.73;;;2.50;;
44862;SDS011;30597;49.628;10.850;2023-05-21T01:12:57;3.33;;;3.03;;
44862;SDS011;30597;49.628;10.850;2023-05-21T01:15:23;3.03;;;2.77;;
44862;SDS011;30597;49.628;10.850;2023-05-21T01:17:49;2.90;;;2.70;;
44862;SDS011;30597;49.628;10.850;2023-05-21T01:20:15;3.50;;;2.67;;
44862;SDS011;30597;49.628;10.850;2023-05-21T01:22:52;3.03;;;2.73;;
44862;SDS011;30597;49.628;10.850;2023-05-21T01:25:19;3.87;;;2.93;;
44862;SDS011;30597;49.628;10.850;2023-05-21T01:27:46;3.07;;;2.50;;
44862;SDS011;30597;49.628;10.850;2023-05-21T01:30:12;2.70;;;2.50;;
44862;SDS011;30597;49.628;10.850;2023-05-21T01:32:43;3.10;;;2.80;;
44862;SDS011;30597;49.628;10.850;2023-05-21T01:35:21;2.87;;;2.57;;
44862;SDS011;30597;49.628;10.850;2023-05-21T01:37:57;3.30;;;2.67;;
44862;SDS011;30597;49.628;10.850;2023-05-21T01:43:22;3.00;;;2.80;;
44862;SDS011;30597;49.628;10.850;2023-05-21T01:45:51;2.60;;;2.40;;
44862;SDS011;30597;49.628;10.850;2023-05-21T01:48:19;2.90;;;2.67;;
44862;SDS011;30597;49.628;10.850;2023-05-21T01:50:47;3.50;;;3.20;;
44862;SDS011;30597;49.628;10.850;2023-05-21T01:53:14;3.30;;;2.77;;
44862;SDS011;30597;49.628;10.850;2023-05-21T01:55:39;4.00;;;2.83;;
44862;SDS011;30597;49.628;10.850;2023-05-21T01:58:06;4.07;;;2.63;;
44862;SDS011;30597;49.628;10.850;2023-05-21T02:00:32;3.40;;;3.00;;
44862;SDS011;30597;49.628;10.850;2023-05-21T02:02:58;3.77;;;2.93;;
44862;SDS011;30597;49.628;10.850;2023-05-21T02:05:24;2.60;;;2.40;;
44862;SDS011;30597;49.628;10.850;2023-05-21T02:07:50;3.37;;;2.70;;
44862;SDS011;30597;49.628;10.850;2023-05-21T02:10:16;2.97;;;2.60;;
44862;SDS011;30597;49.628;10.850;2023-05-21T02:12:42;3.90;;;3.00;;
44862;SDS011;30597;49.628;10.850;2023-05-21T02:15:07;2.60;;;2.40;;
44862;SDS011;30597;49.628;10.850;2023-05-21T02:17:33;3.33;;;3.13;;
44862;SDS011;30597;49.628;10.850;2023-05-21T02:19:59;3.00;;;2.70;;
44862;SDS011;30597;49.628;10.850;2023-05-21T02:22:35;2.30;;;2.10;;
44862;SDS011;30597;49.628;10.850;2023-05-21T02:25:04;2.83;;;2.50;;
44862;SDS011;30597;49.628;10.850;2023-05-21T02:27:32;3.00;;;2.60;;
44862;SDS011;30597;49.628;10.850;2023-05-21T02:29:59;3.27;;;2.30;;
44862;SDS011;30597;49.628;10.850;2023-05-21T02:32:25;2.93;;;2.40;;
44862;SDS011;30597;49.628;10.850;2023-05-21T02:34:50;3.40;;;3.10;;
44862;SDS011;30597;49.628;10.850;2023-05-21T02:37:17;2.90;;;2.70;;
44862;SDS011;30597;49.628;10.850;2023-05-21T02:39:43;2.47;;;2.27;;
44862;SDS011;30597;49.628;10.850;2023-05-21T02:42:08;3.20;;;2.90;;
44862;SDS011;30597;49.628;10.850;2023-05-21T02:44:34;2.97;;;2.67;;
44862;SDS011;30597;49.628;10.850;2023-05-21T02:47:00;2.80;;;2.57;;
44862;SDS011;30597;49.628;10.850;2023-05-21T02:49:25;2.70;;;2.50;;
44862;SDS011;30597;49.628;10.850;2023-05-21T02:51:51;2.60;;;2.37;;
44862;SDS011;30597;49.628;10.850;2023-05-21T02:54:16;2.60;;;2.00;;
44862;SDS011;30597;49.628;10.850;2023-05-21T02:56:42;3.37;;;2.47;;
44862;SDS011;30597;49.628;10.850;2023-05-21T02:59:07;2.97;;;2.67;;
44862;SDS011;30597;49.628;10.850;2023-05-21T03:01:33;2.77;;;2.57;;
44862;SDS011;30597;49.628;10.850;2023-05-21T03:03:58;2.90;;;2.70;;
44862;SDS011;30597;49.628;10.850;2023-05-21T03:06:24;4.03;;;2.70;;
44862;SDS011;30597;49.628;10.850;2023-05-21T03:08:50;2.80;;;2.60;;
44862;SDS011;30597;49.628;10.850;2023-05-21T03:11:15;2.80;;;2.43;;
44862;SDS011;30597;49.628;10.850;2023-05-21T03:13:42;3.10;;;2.80;;
44862;SDS011;30597;49.628;10.850;2023-05-21T03:16:08;3.03;;;2.73;;
44862;SDS011;30597;49.628;10.850;2023-05-21T03:18:33;3.43;;;3.13;;
44862;SDS011;30597;49.628;10.850;2023-05-21T03:20:59;2.50;;;2.30;;
44862;SDS011;30597;49.628;10.850;2023-05-21T03:23:25;3.53;;;2.53;;
44862;SDS011;30597;49.628;10.850;2023-05-21T03:25:51;3.10;;;2.80;;
44862;SDS011;30597;49.628;10.850;2023-05-21T03:28:16;3.70;;;3.03;;
44862;SDS011;30597;49.628;10.850;2023-05-21T03:30:42;2.90;;;2.60;;
44862;SDS011;30597;49.628;10.850;2023-05-21T03:33:14;3.57;;;2.37;;
44862;SDS011;30597;49.628;10.850;2023-05-21T03:35:40;3.30;;;2.93;;
44862;SDS011;30597;49.628;10.850;2023-05-21T03:38:05;2.97;;;2.67;;
44862;SDS011;30597;49.628;10.850;2023-05-21T03:40:31;2.90;;;2.60;;
44862;SDS011;30597;49.628;10.850;2023-05-21T03:42:57;2.97;;;2.67;;
44862;SDS011;30597;49.628;10.850;2023-05-21T03:45:22;3.30;;;2.63;;
44862;SDS011;30597;49.628;10.850;2023-05-21T03:47:48;2.77;;;2.57;;
44862;SDS011;30597;49.628;10.850;2023-05-21T03:50:13;3.20;;;2.90;;
44862;SDS011;30597;49.628;10.850;2023-05-21T03:52:39;3.43;;;3.13;;
44862;SDS011;30597;49.628;10.850;2023-05-21T03:55:05;3.30;;;2.60;;
44862;SDS011;30597;49.628;10.850;2023-05-21T03:57:31;2.77;;;2.40;;
44862;SDS011;30597;49.628;10.850;2023-05-21T03:59:56;3.17;;;2.87;;
44862;SDS011;30597;49.628;10.850;2023-05-21T04:02:24;3.20;;;2.90;;
44862;SDS011;30597;49.628;10.850;2023-05-21T04:04:51;3.53;;;2.70;;
44862;SDS011;30597;49.628;10.850;2023-05-21T04:07:17;3.00;;;2.70;;
44862;SDS011;30597;49.628;10.850;2023-05-21T04:09:43;2.67;;;2.47;;
44862;SDS011;30597;49.628;10.850;2023-05-21T04:12:10;2.53;;;2.33;;
44862;SDS011;30597;49.628;10.850;2023-05-21T04:14:35;2.77;;;2.57;;
44862;SDS011;30597;49.628;10.850;2023-05-21T04:17:01;2.87;;;2.67;;
44862;SDS011;30597;49.628;10.850;2023-05-21T04:19:29;2.40;;;2.20;;
44862;SDS011;30597;49.628;10.850;2023-05-21T04:21:55;2.60;;;2.40;;
44862;SDS011;30597;49.628;10.850;2023-05-21T04:24:22;2.53;;;2.33;;
44862;SDS011;30597;49.628;10.850;2023-05-21T04:26:48;3.03;;;2.80;;
44862;SDS011;30597;49.628;10.850;2023-05-21T04:29:13;3.27;;;2.97;;
44862;SDS011;30597;49.628;10.850;2023-05-21T04:31:44;2.60;;;2.40;;
44862;SDS011;30597;49.628;10.850;2023-05-21T04:34:11;3.00;;;2.80;;
44862;SDS011;30597;49.628;10.850;2023-05-21T04:36:37;4.13;;;2.60;;
44862;SDS011;30597;49.628;10.850;2023-05-21T04:39:02;3.10;;;2.70;;
44862;SDS011;30597;49.628;10.850;2023-05-21T04:41:30;2.90;;;2.70;;
44862;SDS011;30597;49.628;10.850;2023-05-21T04:43:55;3.03;;;2.43;;
44862;SDS011;30597;49.628;10.850;2023-05-21T04:46:21;3.43;;;2.60;;
44862;SDS011;30597;49.628;10.850;2023-05-21T04:48:51;2.90;;;2.50;;
44862;SDS011;30597;49.628;10.850;2023-05-21T04:51:18;2.57;;;2.37;;
44862;SDS011;30597;49.628;10.850;2023-05-21T04:53:48;2.73;;;2.53;;
44862;SDS011;30597;49.628;10.850;2023-05-21T04:56:17;3.83;;;2.70;;
44862;SDS011;30597;49.628;10.850;2023-05-21T04:58:43;3.00;;;2.80;;
44862;SDS011;30597;49.628;10.850;2023-05-21T05:01:09;2.57;;;2.37;;
44862;SDS011;30597;49.628;10.850;2023-05-21T05:03:36;3.00;;;2.80;;
44862;SDS011;30597;49.628;10.850;2023-05-21T05:06:02;3.43;;;3.13;;
44862;SDS011;30597;49.628;10.850;2023-05-21T05:08:28;2.80;;;2.60;;
44862;SDS011;30597;49.628;10.850;2023-05-21T05:10:54;2.30;;;2.10;;
44862;SDS011;30597;49.628;10.850;2023-05-21T05:13:19;3.00;;;2.57;;
44862;SDS011;30597;49.628;10.850;2023-05-21T05:15:45;2.60;;;2.40;;
44862;SDS011;30597;49.628;10.850;2023-05-21T05:18:11;2.47;;;2.20;;
44862;SDS011;30597;49.628;10.850;2023-05-21T05:20:37;2.93;;;2.63;;
44862;SDS011;30597;49.628;10.850;2023-05-21T05:23:02;2.43;;;2.23;;
44862;SDS011;30597;49.628;10.850;2023-05-21T05:25:28;3.07;;;2.50;;
44862;SDS011;30597;49.628;10.850;2023-05-21T05:27:53;3.00;;;2.80;;
44862;SDS011;30597;49.628;10.850;2023-05-21T05:30:19;5.53;;;2.53;;
44862;SDS011;30597;49.628;10.850;2023-05-21T05:32:45;4.07;;;2.70;;
44862;SDS011;30597;49.628;10.850;2023-05-21T05:35:10;7.97;;;2.60;;
44862;SDS011;30597;49.628;10.850;2023-05-21T05:37:36;3.73;;;2.77;;
44862;SDS011;30597;49.628;10.850;2023-05-21T05:40:02;6.50;;;2.70;;
44862;SDS011;30597;49.628;10.850;2023-05-21T05:42:29;3.20;;;2.90;;
44862;SDS011;30597;49.628;10.850;2023-05-21T05:44:54;2.87;;;2.63;;
44862;SDS011;30597;49.628;10.850;2023-05-21T05:47:20;3.23;;;2.93;;
44862;SDS011;30597;49.628;10.850;2023-05-21T05:49:46;4.20;;;3.10;;
44862;SDS011;30597;49.628;10.850;2023-05-21T05:52:12;3.80;;;3.50;;
44862;SDS011;30597;49.628;10.850;2023-05-21T05:54:38;2.97;;;2.67;;
44862;SDS011;30597;49.628;10.850;2023-05-21T05:57:04;3.37;;;3.03;;
44862;SDS011;30597;49.628;10.850;2023-05-21T05:59:30;7.73;;;2.50;;
44862;SDS011;30597;49.628;10.850;2023-05-21T06:01:57;4.53;;;2.90;;
44862;SDS011;30597;49.628;10.850;2023-05-21T06:04:23;3.33;;;3.00;;
44862;SDS011;30597;49.628;10.850;2023-05-21T06:06:49;3.27;;;2.97;;
44862;SDS011;30597;49.628;10.850;2023-05-21T06:09:16;3.30;;;3.10;;
44862;SDS011;30597;49.628;10.850;2023-05-21T06:11:41;3.00;;;2.70;;
44862;SDS011;30597;49.628;10.850;2023-05-21T06:14:07;3.30;;;3.00;;
44862;SDS011;30597;49.628;10.850;2023-05-21T06:16:33;3.37;;;3.07;;
44862;SDS011;30597;49.628;10.850;2023-05-21T06:18:58;3.70;;;3.33;;
44862;SDS011;30597;49.628;10.850;2023-05-21T06:21:24;2.63;;;2.43;;
44862;SDS011;30597;49.628;10.850;2023-05-21T06:23:50;3.30;;;3.00;;
44862;SDS011;30597;49.628;10.850;2023-05-21T06:26:15;4.30;;;3.50;;
44862;SDS011;30597;49.628;10.850;2023-05-21T06:28:43;3.17;;;2.87;;
44862;SDS011;30597;49.628;10.850;2023-05-21T06:31:08;3.33;;;3.03;;
44862;SDS011;30597;49.628;10.850;2023-05-21T06:33:34;3.10;;;2.90;;
44862;SDS011;30597;49.628;10.850;2023-05-21T06:35:59;3.17;;;2.90;;
44862;SDS011;30597;49.628;10.850;2023-05-21T06:38:25;3.23;;;2.93;;
44862;SDS011;30597;49.628;10.850;2023-05-21T06:40:50;3.47;;;3.17;;
44862;SDS011;30597;49.628;10.850;2023-05-21T06:43:16;3.57;;;3.27;;
44862;SDS011;30597;49.628;10.850;2023-05-21T06:45:41;2.93;;;2.73;;
44862;SDS011;30597;49.628;10.850;2023-05-21T06:48:07;2.80;;;2.50;;
44862;SDS011;30597;49.628;10.850;2023-05-21T06:50:33;3.33;;;2.80;;
44862;SDS011;30597;49.628;10.850;2023-05-21T06:52:58;3.30;;;3.00;;
44862;SDS011;30597;49.628;10.850;2023-05-21T06:55:25;3.30;;;3.00;;
44862;SDS011;30597;49.628;10.850;2023-05-21T06:57:50;3.50;;;3.20;;
44862;SDS011;30597;49.628;10.850;2023-05-21T07:00:16;3.87;;;3.10;;
44862;SDS011;30597;49.628;10.850;2023-05-21T07:02:42;3.33;;;3.03;;
44862;SDS011;30597;49.628;10.850;2023-05-21T07:05:08;3.37;;;3.07;;
44862;SDS011;30597;49.628;10.850;2023-05-21T07:07:33;3.73;;;3.40;;
44862;SDS011;30597;49.628;10.850;2023-05-21T07:09:59;3.17;;;2.87;;
44862;SDS011;30597;49.628;10.850;2023-05-21T07:12:25;3.67;;;3.33;;
44862;SDS011;30597;49.628;10.850;2023-05-21T07:14:50;3.37;;;3.07;;
44862;SDS011;30597;49.628;10.850;2023-05-21T07:17:16;3.43;;;3.13;;
44862;SDS011;30597;49.628;10.850;2023-05-21T07:19:41;3.37;;;3.10;;
44862;SDS011;30597;49.628;10.850;2023-05-21T07:22:07;3.73;;;3.20;;
44862;SDS011;30597;49.628;10.850;2023-05-21T07:24:32;3.70;;;3.40;;
44862;SDS011;30597;49.628;10.850;2023-05-21T07:26:58;3.87;;;3.47;;
44862;SDS011;30597;49.628;10.850;2023-05-21T07:29:23;3.40;;;3.10;;
44862;SDS011;30597;49.628;10.850;2023-05-21T07:31:49;3.70;;;3.40;;
44862;SDS011;30597;49.628;10.850;2023-05-21T07:34:15;3.07;;;2.87;;
44862;SDS011;30597;49.628;10.850;2023-05-21T07:36:40;3.60;;;3.30;;
44862;SDS011;30597;49.628;10.850;2023-05-21T07:39:06;4.00;;;3.60;;
44862;SDS011;30597;49.628;10.850;2023-05-21T07:41:31;3.30;;;3.00;;
44862;SDS011;30597;49.628;10.850;2023-05-21T07:43:57;3.50;;;3.20;;
44862;SDS011;30597;49.628;10.850;2023-05-21T07:46:22;4.00;;;3.70;;
44862;SDS011;30597;49.628;10.850;2023-05-21T07:48:48;5.23;;;4.00;;
44862;SDS011;30597;49.628;10.850;2023-05-21T07:51:14;3.97;;;3.60;;
44862;SDS011;30597;49.628;10.850;2023-05-21T07:53:40;4.53;;;4.13;;
44862;SDS011;30597;49.628;10.850;2023-05-21T07:56:06;4.97;;;3.43;;
44862;SDS011;30597;49.628;10.850;2023-05-21T07:58:31;4.17;;;3.60;;
44862;SDS011;30597;49.628;10.850;2023-05-21T08:00:59;4.43;;;4.03;;
44862;SDS011;30597;49.628;10.850;2023-05-21T08:03:24;4.23;;;3.80;;
44862;SDS011;30597;49.628;10.850;2023-05-21T08:05:51;3.97;;;3.67;;
44862;SDS011;30597;49.628;10.850;2023-05-21T08:08:17;3.87;;;3.57;;
44862;SDS011;30597;49.628;10.850;2023-05-21T08:10:44;4.03;;;3.63;;
44862;SDS011;30597;49.628;10.850;2023-05-21T08:13:10;3.60;;;3.30;;
44862;SDS011;30597;49.628;10.850;2023-05-21T08:15:36;3.60;;;3.30;;
44862;SDS011;30597;49.628;10.850;2023-05-21T08:18:02;3.67;;;3.30;;
44862;SDS011;30597;49.628;10.850;2023-05-21T08:20:28;3.83;;;3.53;;
44862;SDS011;30597;49.628;10.850;2023-05-21T08:22:55;3.90;;;3.60;;
44862;SDS011;30597;49.628;10.850;2023-05-21T08:25:21;3.80;;;3.50;;
44862;SDS011;30597;49.628;10.850;2023-05-21T08:27:46;4.40;;;4.00;;
44862;SDS011;30597;49.628;10.850;2023-05-21T08:30:12;4.43;;;4.03;;
44862;SDS011;30597;49.628;10.850;2023-05-21T08:32:38;4.20;;;3.80;;
44862;SDS011;30597;49.628;10.850;2023-05-21T08:35:04;3.93;;;3.63;;
44862;SDS011;30597;49.628;10.850;2023-05-21T08:37:31;4.37;;;3.97;;
44862;SDS011;30597;49.628;10.850;2023-05-21T08:39:56;4.97;;;4.07;;
44862;SDS011;30597;49.628;10.850;2023-05-21T08:45:06;4.60;;;4.20;;
44862;SDS011;30597;49.628;10.850;2023-05-21T08:47:35;4.50;;;4.10;;
44862;SDS011;30597;49.628;10.850;2023-05-21T08:50:02;4.10;;;3.70;;
44862;SDS011;30597;49.628;10.850;2023-05-21T08:52:29;3.83;;;3.53;;
44862;SDS011;30597;49.628;10.850;2023-05-21T08:54:56;3.77;;;3.47;;
44862;SDS011;30597;49.628;10.850;2023-05-21T08:57:22;3.70;;;3.40;;
44862;SDS011;30597;49.628;10.850;2023-05-21T08:59:53;7.43;;;3.97;;
44862;SDS011;30597;49.628;10.850;2023-05-21T09:02:18;4.60;;;4.20;;
44862;SDS011;30597;49.628;10.850;2023-05-21T09:04:44;4.63;;;4.23;;
44862;SDS011;30597;49.628;10.850;2023-05-21T09:07:13;5.67;;;5.17;;
44862;SDS011;30597;49.628;10.850;2023-05-21T09:09:54;4.83;;;4.00;;
44862;SDS011;30597;49.628;10.850;2023-05-21T09:12:22;5.27;;;4.83;;
44862;SDS011;30597;49.628;10.850;2023-05-21T09:14:49;4.67;;;4.27;;
44862;SDS011;30597;49.628;10.850;2023-05-21T09:17:15;4.97;;;4.57;;
44862;SDS011;30597;49.628;10.850;2023-05-21T09:23:01;4.70;;;4.30;;
44862;SDS011;30597;49.628;10.850;2023-05-21T09:25:28;4.73;;;4.33;;
44862;SDS011;30597;49.628;10.850;2023-05-21T09:27:57;4.70;;;4.30;;
44862;SDS011;30597;49.628;10.850;2023-05-21T09:30:23;4.07;;;3.67;;
44862;SDS011;30597;49.628;10.850;2023-05-21T09:32:53;5.00;;;4.50;;
44862;SDS011;30597;49.628;10.850;2023-05-21T09:35:20;5.60;;;5.00;;
44862;SDS011;30597;49.628;10.850;2023-05-21T09:37:47;5.40;;;4.90;;
44862;SDS011;30597;49.628;10.850;2023-05-21T09:40:14;4.83;;;4.33;;
44862;SDS011;30597;49.628;10.850;2023-05-21T09:42:42;5.40;;;4.90;;
44862;SDS011;30597;49.628;10.850;2023-05-21T09:45:10;4.23;;;3.87;;
44862;SDS011;30597;49.628;10.850;2023-05-21T09:47:42;4.73;;;4.27;;
44862;SDS011;30597;49.628;10.850;2023-05-21T09:50:09;4.60;;;4.20;;
44862;SDS011;30597;49.628;10.850;2023-05-21T09:52:36;4.90;;;4.40;;
44862;SDS011;30597;49.628;10.850;2023-05-21T09:55:03;7.63;;;5.10;;
44862;SDS011;30597;49.628;10.850;2023-05-21T09:57:30;4.47;;;4.07;;
44862;SDS011;30597;49.628;10.850;2023-05-21T09:59:55;6.00;;;5.40;;
44862;SDS011;30597;49.628;10.850;2023-05-21T10:02:22;6.50;;;5.13;;
44862;SDS011;30597;49.628;10.850;2023-05-21T10:04:49;5.67;;;5.10;;
44862;SDS011;30597;49.628;10.850;2023-05-21T10:07:17;8.30;;;5.80;;
44862;SDS011;30597;49.628;10.850;2023-05-21T10:09:46;8.90;;;6.63;;
44862;SDS011;30597;49.628;10.850;2023-05-21T10:12:15;8.13;;;6.43;;
44862;SDS011;30597;49.628;10.850;2023-05-21T10:14:43;7.43;;;6.03;;
44862;SDS011;30597;49.628;10.850;2023-05-21T10:17:14;10.87;;;6.27;;
44862;SDS011;30597;49.628;10.850;2023-05-21T10:19:41;8.80;;;6.30;;
44862;SDS011;30597;49.628;10.850;2023-05-21T10:22:07;7.93;;;7.07;;
44862;SDS011;30597;49.628;10.850;2023-05-21T10:24:34;11.37;;;7.83;;
44862;SDS011;30597;49.628;10.850;2023-05-21T10:27:00;11.23;;;8.30;;
44862;SDS011;30597;49.628;10.850;2023-05-21T10:29:27;15.17;;;8.10;;
44862;SDS011;30597;49.628;10.850;2023-05-21T10:31:55;11.87;;;7.80;;
44862;SDS011;30597;49.628;10.850;2023-05-21T10:34:21;11.47;;;8.87;;
44862;SDS011;30597;49.628;10.850;2023-05-21T10:36:48;14.00;;;9.30;;
44862;SDS011;30597;49.628;10.850;2023-05-21T10:39:16;11.57;;;8.03;;
44862;SDS011;30597;49.628;10.850;2023-05-21T10:42:08;10.80;;;8.27;;
44862;SDS011;30597;49.628;10.850;2023-05-21T10:50:28;12.03;;;7.10;;
44862;SDS011;30597;49.628;10.850;2023-05-21T10:53:14;10.37;;;8.33;;
44862;SDS011;30597;49.628;10.850;2023-05-21T10:59:06;12.07;;;7.77;;
44862;SDS011;30597;49.628;10.850;2023-05-21T11:01:39;12.60;;;7.57;;
44862;SDS011;30597;49.628;10.850;2023-05-21T11:04:05;11.50;;;8.50;;
44862;SDS011;30597;49.628;10.850;2023-05-21T11:06:31;11.33;;;8.47;;
44862;SDS011;30597;49.628;10.850;2023-05-21T11:09:01;9.23;;;7.03;;
44862;SDS011;30597;49.628;10.850;2023-05-21T11:11:41;8.87;;;6.90;;
44862;SDS011;30597;49.628;10.850;2023-05-21T11:16:59;8.30;;;7.40;;
44862;SDS011;30597;49.628;10.850;2023-05-21T11:24:50;9.00;;;7.33;;
44862;SDS011;30597;49.628;10.850;2023-05-21T11:27:29;11.33;;;7.43;;
44862;SDS011;30597;49.628;10.850;2023-05-21T11:30:02;8.60;;;7.17;;
44862;SDS011;30597;49.628;10.850;2023-05-21T11:32:39;10.73;;;6.93;;
44862;SDS011;30597;49.628;10.850;2023-05-21T11:38:14;8.10;;;7.03;;
44862;SDS011;30597;49.628;10.850;2023-05-21T11:40:53;8.07;;;6.93;;
44862;SDS011;30597;49.628;10.850;2023-05-21T11:43:19;9.50;;;6.90;;
44862;SDS011;30597;49.628;10.850;2023-05-21T11:45:45;9.30;;;7.30;;
44862;SDS011;30597;49.628;10.850;2023-05-21T11:48:14;11.53;;;7.07;;
44862;SDS011;30597;49.628;10.850;2023-05-21T11:50:40;6.90;;;6.20;;
44862;SDS011;30597;49.628;10.850;2023-05-21T11:53:09;11.50;;;7.50;;
44862;SDS011;30597;49.628;10.850;2023-05-21T11:55:39;8.33;;;7.43;;
44862;SDS011;30597;49.628;10.850;2023-05-21T11:58:11;9.33;;;6.80;;
44862;SDS011;30597;49.628;10.850;2023-05-21T12:00:38;7.57;;;6.77;;
44862;SDS011;30597;49.628;10.850;2023-05-21T12:03:04;8.50;;;6.13;;
44862;SDS011;30597;49.628;10.850;2023-05-21T12:05:42;9.03;;;6.93;;
44862;SDS011;30597;49.628;10.850;2023-05-21T12:08:11;7.40;;;6.10;;
44862;SDS011;30597;49.628;10.850;2023-05-21T12:10:36;6.50;;;5.90;;
44862;SDS011;30597;49.628;10.850;2023-05-21T12:13:03;10.83;;;7.00;;
44862;SDS011;30597;49.628;10.850;2023-05-21T12:15:29;7.73;;;6.57;;
44862;SDS011;30597;49.628;10.850;2023-05-21T12:17:54;6.73;;;6.03;;
44862;SDS011;30597;49.628;10.850;2023-05-21T12:20:20;8.40;;;7.00;;
44862;SDS011;30597;49.628;10.850;2023-05-21T12:22:47;7.40;;;6.60;;
44862;SDS011;30597;49.628;10.850;2023-05-21T12:25:15;8.10;;;7.20;;
44862;SDS011;30597;49.628;10.850;2023-05-21T12:27:43;9.73;;;7.17;;
44862;SDS011;30597;49.628;10.850;2023-05-21T12:30:10;7.50;;;6.63;;
44862;SDS011;30597;49.628;10.850;2023-05-21T12:32:39;11.17;;;6.70;;
44862;SDS011;30597;49.628;10.850;2023-05-21T12:35:08;9.20;;;6.50;;
44862;SDS011;30597;49.628;10.850;2023-05-21T12:37:44;7.70;;;6.70;;
44862;SDS011;30597;49.628;10.850;2023-05-21T12:40:09;7.60;;;6.80;;
44862;SDS011;30597;49.628;10.850;2023-05-21T12:42:36;7.10;;;6.40;;
44862;SDS011;30597;49.628;10.850;2023-05-21T12:45:07;7.83;;;6.07;;
44862;SDS011;30597;49.628;10.850;2023-05-21T12:47:34;7.50;;;6.70;;
44862;SDS011;30597;49.628;10.850;2023-05-21T12:50:00;8.30;;;7.50;;
44862;SDS011;30597;49.628;10.850;2023-05-21T12:52:27;7.43;;;6.60;;
44862;SDS011;30597;49.628;10.850;2023-05-21T12:54:53;12.60;;;6.83;;
44862;SDS011;30597;49.628;10.850;2023-05-21T12:57:21;7.30;;;6.63;;
44862;SDS011;30597;49.628;10.850;2023-05-21T12:59:49;8.60;;;7.53;;
44862;SDS011;30597;49.628;10.850;2023-05-21T13:04:46;8.73;;;6.93;;
44862;SDS011;30597;49.628;10.850;2023-05-21T13:07:13;7.50;;;6.57;;
44862;SDS011;30597;49.628;10.850;2023-05-21T13:09:40;10.20;;;6.80;;
44862;SDS011;30597;49.628;10.850;2023-05-21T13:12:06;7.50;;;6.80;;
44862;SDS011;30597;49.628;10.850;2023-05-21T13:14:32;8.57;;;6.37;;
44862;SDS011;30597;49.628;10.850;2023-05-21T13:16:57;8.90;;;7.63;;
44862;SDS011;30597;49.628;10.850;2023-05-21T13:19:23;8.10;;;6.50;;
44862;SDS011;30597;49.628;10.850;2023-05-21T13:21:49;8.20;;;6.23;;
44862;SDS011;30597;49.628;10.850;2023-05-21T13:24:14;9.10;;;7.10;;
44862;SDS011;30597;49.628;10.850;2023-05-21T13:26:40;7.93;;;5.80;;
44862;SDS011;30597;49.628;10.850;2023-05-21T13:29:05;8.40;;;6.80;;
44862;SDS011;30597;49.628;10.850;2023-05-21T13:31:31;9.23;;;7.13;;
44862;SDS011;30597;49.628;10.850;2023-05-21T13:33:56;9.00;;;6.23;;
44862;SDS011;30597;49.628;10.850;2023-05-21T13:36:22;8.30;;;6.00;;
44862;SDS011;30597;49.628;10.850;2023-05-21T13:38:47;8.20;;;6.93;;
44862;SDS011;30597;49.628;10.850;2023-05-21T13:41:13;6.90;;;6.20;;
44862;SDS011;30597;49.628;10.850;2023-05-21T13:43:41;8.40;;;6.30;;
44862;SDS011;30597;49.628;10.850;2023-05-21T13:46:07;7.70;;;5.97;;
44862;SDS011;30597;49.628;10.850;2023-05-21T13:48:33;7.20;;;5.97;;
44862;SDS011;30597;49.628;10.850;2023-05-21T13:50:58;6.77;;;5.73;;
44862;SDS011;30597;49.628;10.850;2023-05-21T13:53:24;7.57;;;6.80;;
44862;SDS011;30597;49.628;10.850;2023-05-21T13:55:49;9.37;;;5.73;;
44862;SDS011;30597;49.628;10.850;2023-05-21T13:58:15;7.60;;;6.57;;
44862;SDS011;30597;49.628;10.850;2023-05-21T14:00:41;9.33;;;6.40;;
44862;SDS011;30597;49.628;10.850;2023-05-21T14:03:07;8.73;;;6.40;;
44862;SDS011;30597;49.628;10.850;2023-05-21T14:05:34;7.00;;;6.07;;
44862;SDS011;30597;49.628;10.850;2023-05-21T14:07:59;11.20;;;5.60;;
44862;SDS011;30597;49.628;10.850;2023-05-21T14:10:25;7.67;;;6.00;;
44862;SDS011;30597;49.628;10.850;2023-05-21T14:12:51;6.07;;;5.47;;
44862;SDS011;30597;49.628;10.850;2023-05-21T14:15:41;6.70;;;5.70;;
44862;SDS011;30597;49.628;10.850;2023-05-21T14:18:07;7.47;;;6.50;;
44862;SDS011;30597;49.628;10.850;2023-05-21T14:20:36;9.80;;;6.13;;
44862;SDS011;30597;49.628;10.850;2023-05-21T14:23:02;6.40;;;5.57;;
44862;SDS011;30597;49.628;10.850;2023-05-21T14:25:28;7.10;;;6.40;;
44862;SDS011;30597;49.628;10.850;2023-05-21T14:27:53;8.20;;;5.90;;
44862;SDS011;30597;49.628;10.850;2023-05-21T14:30:19;10.13;;;6.73;;
44862;SDS011;30597;49.628;10.850;2023-05-21T14:32:51;8.83;;;6.30;;
44862;SDS011;30597;49.628;10.850;2023-05-21T14:35:45;7.20;;;5.43;;
44862;SDS011;30597;49.628;10.850;2023-05-21T14:38:11;6.73;;;5.73;;
44862;SDS011;30597;49.628;10.850;2023-05-21T14:40:37;8.30;;;6.17;;
44862;SDS011;30597;49.628;10.850;2023-05-21T14:43:03;8.63;;;6.20;;
44862;SDS011;30597;49.628;10.850;2023-05-21T14:45:29;7.40;;;6.67;;
44862;SDS011;30597;49.628;10.850;2023-05-21T14:47:56;6.67;;;5.97;;
44862;SDS011;30597;49.628;10.850;2023-05-21T14:50:22;7.90;;;5.93;;
44862;SDS011;30597;49.628;10.850;2023-05-21T14:52:48;8.97;;;6.57;;
44862;SDS011;30597;49.628;10.850;2023-05-21T14:55:13;8.53;;;6.63;;
44862;SDS011;30597;49.628;10.850;2023-05-21T14:57:40;6.87;;;5.50;;
44862;SDS011;30597;49.628;10.850;2023-05-21T15:00:06;8.17;;;7.10;;
44862;SDS011;30597;49.628;10.850;2023-05-21T15:02:32;7.10;;;5.53;;
44862;SDS011;30597;49.628;10.850;2023-05-21T15:04:58;8.00;;;6.50;;